Time;durP1;ratioP1;P1;durP2;ratioP2;P2;SDS_P1;SDS_P2;PMS_P1;PMS_P2;Temp;Humidity;BMP_temperature;BMP_pressure;BME280_temperature;BME280_humidity;BME280_pressure;Samples;Min_cycle;Max_cycle;Signal;HPM_P1;HPM_P2
2022/04/30 00:01:01;;;;;;;;;;;8.10;99.90;;;;;;5029602;28;20392;-72
2022/04/30 00:03:28;;;;;;;;;;;8.10;99.90;;;;;;5045949;28;19944;-71
2022/04/30 00:05:55;;;;;;;;;;;8.00;99.90;;;;;;5029363;28;19952;-72
2022/04/30 00:08:22;;;;;;;;;;;8.00;99.90;;;;;;5045891;28;19972;-71
2022/04/30 00:10:52;;;;;;;;;;;7.90;99.90;;;;;;5029803;28;19944;-71
2022/04/30 00:13:18;;;;;;;;;;;7.80;99.90;;;;;;5030494;28;20347;-71
2022/04/30 00:15:45;;;;;;;;;;;7.80;99.90;;;;;;5029140;28;20418;-72
2022/04/30 00:18:12;;;;;;;;;;;7.70;99.90;;;;;;5029452;28;19933;-71
2022/04/30 00:20:45;;;;;;;;;;;7.70;99.90;;;;;;5029476;28;19929;-71
2022/04/30 00:23:19;;;;;;;;;;;7.70;99.90;;;;;;5029223;28;20028;-71
2022/04/30 00:25:46;;;;;;;;;;;7.60;99.90;;;;;;5029178;28;20403;-72
2022/04/30 00:28:15;;;;;;;;;;;7.60;99.90;;;;;;5031084;28;19925;-71
2022/04/30 00:30:43;;;;;;;;;;;7.50;99.90;;;;;;5029391;28;19925;-71
2022/04/30 00:33:10;;;;;;;;;;;7.50;99.90;;;;;;5029751;28;20381;-69
2022/04/30 00:35:37;;;;;;;;;;;7.40;99.90;;;;;;5029231;28;20424;-70
2022/04/30 00:38:04;;;;;;;;;;;7.30;99.90;;;;;;5046163;28;19979;-69
2022/04/30 00:40:30;;;;;;;;;;;7.30;99.90;;;;;;5029323;28;20459;-70
2022/04/30 00:42:57;;;;;;;;;;;7.30;99.90;;;;;;5046148;28;20332;-70
2022/04/30 00:45:26;;;;;;;;;;;7.30;99.90;;;;;;5029019;28;20361;-70
2022/04/30 00:47:53;;;;;;;;;;;7.20;99.90;;;;;;5029847;28;20348;-70
2022/04/30 00:50:21;;;;;;;;;;;7.20;99.90;;;;;;5029435;28;20343;-69
2022/04/30 00:52:48;;;;;;;;;;;7.20;99.90;;;;;;5029374;28;20277;-70
2022/04/30 00:55:21;;;;;;;;;;;7.10;99.90;;;;;;5029540;28;19929;-70
2022/04/30 00:57:49;;;;;;;;;;;7.10;99.90;;;;;;5030355;28;20040;-70
2022/04/30 01:00:16;;;;;;;;;;;7.00;99.90;;;;;;5030847;28;20354;-70
2022/04/30 01:02:59;;;;;;;;;;;7.00;99.90;;;;;;5034026;28;19956;-71
2022/04/30 01:05:58;;;;;;;;;;;7.00;99.90;;;;;;5029076;28;19932;-70
2022/04/30 01:08:27;;;;;;;;;;;7.00;99.90;;;;;;5032875;28;20028;-70
2022/04/30 01:10:54;;;;;;;;;;;6.90;99.90;;;;;;5033000;28;19929;-71
2022/04/30 01:13:21;;;;;;;;;;;6.90;99.90;;;;;;5049741;28;19979;-70
2022/04/30 01:15:48;;;;;;;;;;;6.80;99.90;;;;;;5032518;28;19925;-71
2022/04/30 01:18:16;;;;;;;;;;;6.80;99.90;;;;;;5049343;28;19925;-70
2022/04/30 01:20:46;;;;;;;;;;;6.80;99.90;;;;;;5032531;28;19925;-71
2022/04/30 01:23:16;;;;;;;;;;;6.80;99.90;;;;;;5032930;28;19975;-70
2022/04/30 01:25:44;;;;;;;;;;;6.70;99.90;;;;;;5032531;28;19933;-70
2022/04/30 01:28:11;;;;;;;;;;;6.70;99.90;;;;;;5048536;28;19961;-70
2022/04/30 01:30:38;;;;;;;;;;;6.70;99.90;;;;;;5032627;28;20371;-71
2022/04/30 01:38:46;;;;;;;;;;;6.70;99.90;;;;;;4975343;28;20410;-71
2022/04/30 01:41:13;;;;;;;;;;;6.70;99.90;;;;;;5034458;28;20015;-71
2022/04/30 01:43:40;;;;;;;;;;;6.70;99.90;;;;;;5032421;28;19972;-71
2022/04/30 01:46:07;;;;;;;;;;;6.70;99.90;;;;;;5032338;28;19956;-70
2022/04/30 01:48:34;;;;;;;;;;;6.70;99.90;;;;;;5032551;28;19929;-71
2022/04/30 01:51:01;;;;;;;;;;;6.80;99.90;;;;;;5032113;28;20416;-70
2022/04/30 01:53:28;;;;;;;;;;;6.90;99.90;;;;;;5032353;28;19936;-71
2022/04/30 01:55:56;;;;;;;;;;;6.90;99.90;;;;;;5032001;28;19925;-70
2022/04/30 01:58:33;;;;;;;;;;;6.90;99.90;;;;;;5032196;28;19925;-70
2022/04/30 02:01:02;;;;;;;;;;;6.90;99.90;;;;;;5031777;28;19947;-71
2022/04/30 02:03:29;;;;;;;;;;;6.90;99.90;;;;;;5031784;28;20404;-71
2022/04/30 02:05:56;;;;;;;;;;;6.90;99.90;;;;;;5032098;28;20348;-70
2022/04/30 02:08:23;;;;;;;;;;;6.90;99.90;;;;;;5031938;28;19926;-71
2022/04/30 02:10:50;;;;;;;;;;;6.90;99.90;;;;;;5031557;28;20367;-70
2022/04/30 02:13:23;;;;;;;;;;;6.90;99.90;;;;;;5030661;28;19936;-70
2022/04/30 02:15:50;;;;;;;;;;;6.80;99.90;;;;;;5057543;28;19929;-70
2022/04/30 02:18:17;;;;;;;;;;;6.80;99.90;;;;;;5032898;28;19936;-70
2022/04/30 02:20:48;;;;;;;;;;;6.80;99.90;;;;;;5032627;28;19925;-70
2022/04/30 02:23:15;;;;;;;;;;;6.80;99.90;;;;;;5032897;28;19925;-70
2022/04/30 02:25:42;;;;;;;;;;;6.80;99.90;;;;;;5032374;28;19933;-69
2022/04/30 02:28:09;;;;;;;;;;;6.70;99.90;;;;;;5032736;28;20086;-71
2022/04/30 02:30:38;;;;;;;;;;;6.70;99.90;;;;;;5032333;28;19925;-70
2022/04/30 02:33:06;;;;;;;;;;;6.80;99.90;;;;;;5032618;28;20036;-70
2022/04/30 02:35:34;;;;;;;;;;;6.70;99.90;;;;;;5031889;28;19925;-70
2022/04/30 02:38:03;;;;;;;;;;;6.70;99.90;;;;;;5032607;28;19925;-70
2022/04/30 02:40:32;;;;;;;;;;;6.70;99.90;;;;;;5032415;28;19932;-70
2022/04/30 02:43:02;;;;;;;;;;;6.70;99.90;;;;;;5032336;28;19940;-70
2022/04/30 02:45:29;;;;;;;;;;;6.60;99.90;;;;;;5032152;28;19925;-70
2022/04/30 02:47:57;;;;;;;;;;;6.60;99.90;;;;;;5032042;28;20343;-70
2022/04/30 02:50:25;;;;;;;;;;;6.60;99.90;;;;;;5032137;28;19925;-69
2022/04/30 02:52:54;;;;;;;;;;;6.50;99.90;;;;;;5032030;28;20396;-69
2022/04/30 02:55:21;;;;;;;;;;;6.50;99.90;;;;;;5038477;28;20351;-70
2022/04/30 03:00:29;;;;;;;;;;;6.40;99.90;;;;;;5050428;28;20019;-70
2022/04/30 03:03:21;;;;;;;;;;;6.30;99.90;;;;;;5047100;28;19994;-70
2022/04/30 03:05:50;;;;;;;;;;;6.20;99.90;;;;;;5051525;28;19925;-70
2022/04/30 03:08:19;;;;;;;;;;;6.20;99.90;;;;;;5051801;28;20020;-70
2022/04/30 03:10:46;;;;;;;;;;;6.10;99.90;;;;;;5051572;28;19924;-69
2022/04/30 03:13:14;;;;;;;;;;;6.00;99.90;;;;;;5051811;28;19929;-70
2022/04/30 03:15:43;;;;;;;;;;;5.90;99.90;;;;;;5051412;28;19931;-70
2022/04/30 03:23:40;;;;;;;;;;;5.80;99.90;;;;;;5049557;28;20066;-70
2022/04/30 03:26:08;;;;;;;;;;;5.80;99.90;;;;;;5051322;28;19925;-70
2022/04/30 03:28:37;;;;;;;;;;;5.70;99.90;;;;;;5051217;28;19928;-70
2022/04/30 03:31:03;;;;;;;;;;;5.80;99.90;;;;;;5051025;28;19924;-70
2022/04/30 03:33:30;;;;;;;;;;;5.70;99.90;;;;;;5051296;28;20011;-70
2022/04/30 03:35:58;;;;;;;;;;;5.70;99.90;;;;;;5050950;28;19928;-70
2022/04/30 03:38:25;;;;;;;;;;;5.70;99.90;;;;;;5051003;28;19991;-70
2022/04/30 03:40:52;;;;;;;;;;;5.70;99.90;;;;;;5051209;28;19931;-70
2022/04/30 03:43:19;;;;;;;;;;;5.70;99.90;;;;;;5051227;28;20388;-70
2022/04/30 03:45:45;;;;;;;;;;;5.70;99.90;;;;;;5050861;28;20335;-70
2022/04/30 03:48:12;;;;;;;;;;;5.80;99.90;;;;;;5051255;28;19925;-70
2022/04/30 03:50:39;;;;;;;;;;;5.80;99.90;;;;;;5051084;28;19924;-70
2022/04/30 03:53:07;;;;;;;;;;;5.90;99.90;;;;;;5051286;28;19929;-70
2022/04/30 03:55:34;;;;;;;;;;;5.90;99.90;;;;;;5050514;28;19924;-70
2022/04/30 03:58:01;;;;;;;;;;;6.00;99.90;;;;;;5051183;28;19925;-70
2022/04/30 04:00:28;;;;;;;;;;;6.10;99.90;;;;;;5050866;28;19943;-70
2022/04/30 04:02:56;;;;;;;;;;;6.10;99.90;;;;;;5051020;28;20331;-70
2022/04/30 04:05:23;;;;;;;;;;;6.20;99.90;;;;;;5050348;28;19924;-70
2022/04/30 04:07:50;;;;;;;;;;;6.20;99.90;;;;;;5050479;28;19925;-70
2022/04/30 04:10:18;;;;;;;;;;;6.20;99.90;;;;;;5050397;28;19925;-70
2022/04/30 04:12:45;;;;;;;;;;;6.30;99.90;;;;;;5050907;28;19975;-70
2022/04/30 04:17:56;;;;;;;;;;;6.40;99.90;;;;;;5050649;28;19925;-70
2022/04/30 04:20:24;;;;;;;;;;;6.40;99.90;;;;;;5050497;28;19948;-70
2022/04/30 04:22:51;;;;;;;;;;;6.40;99.90;;;;;;5050848;28;19991;-70
2022/04/30 04:28:04;;;;;;;;;;;6.40;99.90;;;;;;5050890;28;19925;-70
2022/04/30 04:30:31;;;;;;;;;;;6.40;99.90;;;;;;5050729;28;19979;-70
2022/04/30 04:32:58;;;;;;;;;;;6.40;99.90;;;;;;5050739;28;19963;-70
2022/04/30 04:35:26;;;;;;;;;;;6.40;99.90;;;;;;5067904;28;20428;-70
2022/04/30 04:37:52;;;;;;;;;;;6.40;99.90;;;;;;5054430;28;19925;-70
2022/04/30 04:40:21;;;;;;;;;;;6.30;99.90;;;;;;5054372;28;19929;-70
2022/04/30 04:42:47;;;;;;;;;;;6.30;99.90;;;;;;5054736;28;20027;-71
2022/04/30 04:45:14;;;;;;;;;;;6.20;99.90;;;;;;5054434;28;19925;-70
2022/04/30 04:47:42;;;;;;;;;;;6.10;99.90;;;;;;5054655;28;19949;-70
2022/04/30 04:50:09;;;;;;;;;;;6.10;99.90;;;;;;5054455;28;19932;-70
2022/04/30 04:52:36;;;;;;;;;;;6.00;99.90;;;;;;5054642;28;19994;-71
2022/04/30 04:55:03;;;;;;;;;;;5.90;99.90;;;;;;5054361;28;19932;-68
2022/04/30 04:57:31;;;;;;;;;;;5.90;99.90;;;;;;5054301;28;19931;-70
2022/04/30 04:59:58;;;;;;;;;;;5.90;99.90;;;;;;5054207;28;19925;-70
2022/04/30 05:02:25;;;;;;;;;;;5.90;99.90;;;;;;5049243;28;19986;-70
2022/04/30 05:04:52;;;;;;;;;;;5.80;99.90;;;;;;5070526;28;19932;-70
2022/04/30 05:07:19;;;;;;;;;;;5.80;99.90;;;;;;5070770;28;19936;-70
2022/04/30 05:09:46;;;;;;;;;;;5.80;99.90;;;;;;5070400;28;19937;-70
2022/04/30 05:12:13;;;;;;;;;;;5.80;99.90;;;;;;5039134;28;20344;-71
2022/04/30 05:14:41;;;;;;;;;;;5.80;99.90;;;;;;5042520;28;19928;-70
2022/04/30 05:17:08;;;;;;;;;;;5.80;99.90;;;;;;5069947;28;19925;-71
2022/04/30 05:19:34;;;;;;;;;;;5.80;99.90;;;;;;5053360;28;20470;-71
2022/04/30 05:22:01;;;;;;;;;;;5.80;99.90;;;;;;5070184;28;19940;-71
2022/04/30 05:24:28;;;;;;;;;;;5.90;99.90;;;;;;5053388;28;20457;-70
2022/04/30 05:26:55;;;;;;;;;;;5.90;99.90;;;;;;5062098;28;19925;-71
2022/04/30 05:29:22;;;;;;;;;;;5.90;99.90;;;;;;5070408;28;19924;-71
2022/04/30 05:31:50;;;;;;;;;;;5.90;99.90;;;;;;5070463;28;19929;-71
2022/04/30 05:34:17;;;;;;;;;;;6.00;99.90;;;;;;5070256;28;19925;-71
2022/04/30 05:36:43;;;;;;;;;;;6.00;99.90;;;;;;5064029;28;19933;-71
2022/04/30 05:39:10;;;;;;;;;;;6.10;99.90;;;;;;5042272;28;19933;-71
2022/04/30 05:41:37;;;;;;;;;;;6.10;99.90;;;;;;5051955;28;19932;-71
2022/04/30 05:44:04;;;;;;;;;;;6.10;99.90;;;;;;5048583;28;19925;-71
2022/04/30 05:46:31;;;;;;;;;;;6.20;99.90;;;;;;5059435;28;19925;-72
2022/04/30 05:48:59;;;;;;;;;;;6.20;99.90;;;;;;5032069;28;19925;-71
2022/04/30 05:51:26;;;;;;;;;;;6.20;99.90;;;;;;5032550;28;19933;-72
2022/04/30 05:53:53;;;;;;;;;;;6.30;99.90;;;;;;5032008;28;19925;-72
2022/04/30 05:56:19;;;;;;;;;;;6.30;99.90;;;;;;5032101;28;19925;-71
2022/04/30 05:58:46;;;;;;;;;;;6.40;99.90;;;;;;5032237;28;20344;-71
2022/04/30 06:01:13;;;;;;;;;;;6.40;99.90;;;;;;5031956;28;19948;-71
2022/04/30 06:03:40;;;;;;;;;;;6.50;99.90;;;;;;5031713;28;19925;-71
2022/04/30 06:06:08;;;;;;;;;;;6.50;99.90;;;;;;5032114;28;19925;-71
2022/04/30 06:08:35;;;;;;;;;;;6.60;99.90;;;;;;5032112;28;20412;-71
2022/04/30 06:11:01;;;;;;;;;;;6.60;99.90;;;;;;5039303;28;20396;-71
2022/04/30 06:13:28;;;;;;;;;;;6.80;99.90;;;;;;5051801;28;20450;-71
2022/04/30 06:15:55;;;;;;;;;;;6.80;99.90;;;;;;5043058;28;19925;-69
2022/04/30 06:18:22;;;;;;;;;;;6.90;99.90;;;;;;5050917;28;19925;-69
2022/04/30 06:20:48;;;;;;;;;;;7.00;99.90;;;;;;5051766;28;19925;-68
2022/04/30 06:23:17;;;;;;;;;;;7.00;99.90;;;;;;5052045;28;19970;-69
2022/04/30 06:25:45;;;;;;;;;;;7.10;99.90;;;;;;5051353;28;19925;-69
2022/04/30 06:28:12;;;;;;;;;;;7.20;99.90;;;;;;5068367;28;19928;-69
2022/04/30 06:30:39;;;;;;;;;;;7.20;99.90;;;;;;5051281;28;19933;-69
2022/04/30 06:33:06;;;;;;;;;;;7.20;99.90;;;;;;5051724;28;20381;-70
2022/04/30 06:35:33;;;;;;;;;;;7.20;99.90;;;;;;5051425;28;19929;-69
2022/04/30 06:38:00;;;;;;;;;;;7.10;99.90;;;;;;5051618;28;19931;-68
2022/04/30 06:40:28;;;;;;;;;;;7.10;99.90;;;;;;5051805;28;19928;-69
2022/04/30 06:42:55;;;;;;;;;;;7.10;99.90;;;;;;5052861;28;19925;-70
2022/04/30 06:45:22;;;;;;;;;;;7.20;99.90;;;;;;5052671;28;19983;-70
2022/04/30 06:47:48;;;;;;;;;;;7.20;99.90;;;;;;5052203;28;19932;-70
2022/04/30 06:50:15;;;;;;;;;;;7.40;99.90;;;;;;5051543;28;19924;-68
2022/04/30 06:58:08;;;;;;;;;;;7.70;99.90;;;;;;5046427;28;20321;-71
2022/04/30 07:03:23;;;;;;;;;;;7.90;99.90;;;;;;5051352;28;19920;-70
2022/04/30 07:05:49;;;;;;;;;;;8.00;99.90;;;;;;5067337;28;19925;-72
2022/04/30 07:08:16;;;;;;;;;;;8.10;99.90;;;;;;5067723;28;19925;-71
2022/04/30 07:10:43;;;;;;;;;;;8.20;99.90;;;;;;5067024;28;19925;-70
2022/04/30 07:13:11;;;;;;;;;;;8.40;99.90;;;;;;5040204;28;19929;-73
2022/04/30 07:15:38;;;;;;;;;;;8.70;99.90;;;;;;5047723;28;19932;-72
2022/04/30 07:18:05;;;;;;;;;;;8.80;99.90;;;;;;5067256;28;20442;-72
2022/04/30 07:20:32;;;;;;;;;;;9.10;99.90;;;;;;5066672;28;19979;-71
2022/04/30 07:22:59;;;;;;;;;;;9.40;99.90;;;;;;5066873;28;19979;-72
2022/04/30 07:25:26;;;;;;;;;;;9.70;99.90;;;;;;5066909;28;19932;-72
2022/04/30 07:27:53;;;;;;;;;;;9.80;99.90;;;;;;5067255;28;19982;-72
2022/04/30 07:30:21;;;;;;;;;;;9.80;99.90;;;;;;5067198;28;19929;-71
2022/04/30 07:32:48;;;;;;;;;;;9.90;99.90;;;;;;5067349;28;20296;-71
2022/04/30 07:35:14;;;;;;;;;;;9.80;99.90;;;;;;5066654;28;19924;-72
2022/04/30 07:37:41;;;;;;;;;;;10.00;99.90;;;;;;5067096;28;19935;-72
2022/04/30 07:40:09;;;;;;;;;;;10.20;99.90;;;;;;5066826;28;19978;-72
2022/04/30 07:42:36;;;;;;;;;;;10.20;99.90;;;;;;5066904;28;19925;-72
2022/04/30 07:45:02;;;;;;;;;;;10.20;99.90;;;;;;5066650;28;19928;-71
2022/04/30 07:47:31;;;;;;;;;;;10.20;99.90;;;;;;5066884;28;19929;-71
2022/04/30 07:49:58;;;;;;;;;;;10.00;99.90;;;;;;5066732;28;19929;-73
2022/04/30 07:52:25;;;;;;;;;;;10.00;99.90;;;;;;5066749;28;19924;-72
2022/04/30 07:54:52;;;;;;;;;;;10.10;99.90;;;;;;5066758;28;19960;-72
2022/04/30 07:57:20;;;;;;;;;;;10.10;99.90;;;;;;5066353;28;19925;-71
2022/04/30 07:59:46;;;;;;;;;;;9.90;99.90;;;;;;5066644;28;19925;-71
2022/04/30 08:02:13;;;;;;;;;;;9.90;99.90;;;;;;5066578;28;19924;-72
2022/04/30 08:04:42;;;;;;;;;;;9.90;99.90;;;;;;5066499;28;20285;-71
2022/04/30 08:07:09;;;;;;;;;;;10.00;99.90;;;;;;5066600;28;19932;-72
2022/04/30 08:09:36;;;;;;;;;;;10.10;99.90;;;;;;5065546;28;19968;-70
2022/04/30 08:12:03;;;;;;;;;;;10.10;99.90;;;;;;5053736;28;20467;-71
2022/04/30 08:14:30;;;;;;;;;;;10.20;99.90;;;;;;5066637;28;19925;-71
2022/04/30 08:16:57;;;;;;;;;;;10.30;99.90;;;;;;5065288;28;20299;-72
2022/04/30 08:19:24;;;;;;;;;;;10.20;99.90;;;;;;5042658;28;19933;-71
2022/04/30 08:21:52;;;;;;;;;;;10.20;99.90;;;;;;5037381;28;19924;-72
2022/04/30 08:24:19;;;;;;;;;;;10.40;99.90;;;;;;5033204;28;20340;-72
2022/04/30 08:26:46;;;;;;;;;;;10.70;99.90;;;;;;5029756;28;19925;-71
2022/04/30 08:29:13;;;;;;;;;;;10.90;99.90;;;;;;5029529;28;19925;-72
2022/04/30 08:31:40;;;;;;;;;;;10.80;99.90;;;;;;5029874;28;19925;-72
2022/04/30 08:34:07;;;;;;;;;;;10.80;99.90;;;;;;5029722;28;20362;-72
2022/04/30 08:36:33;;;;;;;;;;;10.60;99.90;;;;;;5029500;28;19929;-72
2022/04/30 08:39:02;;;;;;;;;;;10.60;99.90;;;;;;5029464;28;19929;-71
2022/04/30 08:41:28;;;;;;;;;;;10.70;99.90;;;;;;5029706;28;19932;-72
2022/04/30 08:43:55;;;;;;;;;;;10.50;99.90;;;;;;5029702;28;19925;-72
2022/04/30 08:46:22;;;;;;;;;;;10.50;99.90;;;;;;5030014;28;19936;-72
2022/04/30 08:48:49;;;;;;;;;;;10.50;99.90;;;;;;5029458;28;19979;-71
2022/04/30 08:51:16;;;;;;;;;;;10.60;99.90;;;;;;5029704;28;19941;-72
2022/04/30 08:53:43;;;;;;;;;;;10.60;99.90;;;;;;5029400;28;19987;-72
2022/04/30 08:56:11;;;;;;;;;;;10.70;99.90;;;;;;5029802;28;19925;-71
2022/04/30 08:58:38;;;;;;;;;;;11.00;99.90;;;;;;5029354;28;19925;-71
2022/04/30 09:01:05;;;;;;;;;;;11.30;99.90;;;;;;5029386;28;19932;-71
2022/04/30 09:03:34;;;;;;;;;;;11.30;99.90;;;;;;5029270;28;19926;-71
2022/04/30 09:06:01;;;;;;;;;;;11.40;99.90;;;;;;5029638;28;19929;-71
2022/04/30 09:08:28;;;;;;;;;;;11.30;99.90;;;;;;5029520;28;19925;-73
2022/04/30 09:11:04;;;;;;;;;;;11.20;99.90;;;;;;5035879;28;19929;-71
2022/04/30 09:13:33;;;;;;;;;;;11.20;99.90;;;;;;5049189;28;19925;-73
2022/04/30 09:15:59;;;;;;;;;;;11.40;99.90;;;;;;5049062;28;20361;-72
2022/04/30 09:18:26;;;;;;;;;;;11.50;99.90;;;;;;5048950;28;20392;-71
2022/04/30 09:20:54;;;;;;;;;;;11.50;99.90;;;;;;5049359;28;19943;-72
2022/04/30 09:23:25;;;;;;;;;;;11.60;99.90;;;;;;5052942;28;20012;-71
2022/04/30 09:25:53;;;;;;;;;;;11.60;99.90;;;;;;5052648;28;20012;-72
2022/04/30 09:28:24;;;;;;;;;;;11.40;99.90;;;;;;5052723;28;20388;-71
2022/04/30 09:30:52;;;;;;;;;;;11.40;99.90;;;;;;5052636;28;19925;-72
2022/04/30 09:33:19;;;;;;;;;;;11.80;99.90;;;;;;5052716;28;19925;-72
2022/04/30 09:38:37;;;;;;;;;;;12.40;99.90;;;;;;5052583;28;20408;-72
2022/04/30 09:41:07;;;;;;;;;;;12.40;99.90;;;;;;5052320;28;19929;-71
2022/04/30 09:43:34;;;;;;;;;;;12.20;99.90;;;;;;5052277;28;19929;-69
2022/04/30 09:46:05;;;;;;;;;;;12.10;99.90;;;;;;5052661;28;19925;-71
2022/04/30 09:54:02;;;;;;;;;;;12.20;99.90;;;;;;5052154;28;19932;-71
2022/04/30 09:56:34;;;;;;;;;;;12.40;99.90;;;;;;5052274;28;20031;-71
2022/04/30 09:59:02;;;;;;;;;;;12.60;99.90;;;;;;5052425;28;19960;-71
2022/04/30 10:01:32;;;;;;;;;;;12.80;99.90;;;;;;5052396;28;19925;-71
2022/04/30 10:03:59;;;;;;;;;;;12.70;99.90;;;;;;5052149;28;19925;-70
2022/04/30 10:06:26;;;;;;;;;;;12.60;99.90;;;;;;5052343;28;19964;-70
2022/04/30 10:08:53;;;;;;;;;;;12.50;99.90;;;;;;5052225;28;19925;-70
2022/04/30 10:11:25;;;;;;;;;;;12.40;99.90;;;;;;5052637;28;19925;-71
2022/04/30 10:13:58;;;;;;;;;;;12.60;99.90;;;;;;5068812;28;19929;-71
2022/04/30 10:16:28;;;;;;;;;;;12.60;99.90;;;;;;5068907;28;20484;-71
2022/04/30 10:19:15;;;;;;;;;;;12.70;99.90;;;;;;5051814;28;19936;-72
2022/04/30 10:21:42;;;;;;;;;;;12.90;99.90;;;;;;5069011;28;20023;-71
2022/04/30 10:24:12;;;;;;;;;;;13.00;99.90;;;;;;5068697;28;19979;-71
2022/04/30 10:26:39;;;;;;;;;;;13.20;99.90;;;;;;5068525;28;20343;-71
2022/04/30 10:29:11;;;;;;;;;;;13.50;99.90;;;;;;5068477;28;19929;-70
2022/04/30 10:31:45;;;;;;;;;;;13.70;99.90;;;;;;5068725;28;19925;-71
2022/04/30 10:34:13;;;;;;;;;;;14.10;99.90;;;;;;5067229;28;19932;-72
2022/04/30 10:36:40;;;;;;;;;;;14.40;99.90;;;;;;5068267;28;19932;-71
2022/04/30 10:39:09;;;;;;;;;;;14.30;99.90;;;;;;5051348;28;19929;-70
2022/04/30 10:41:43;;;;;;;;;;;13.90;99.90;;;;;;5068305;28;19972;-72
2022/04/30 10:44:12;;;;;;;;;;;13.90;99.90;;;;;;5067694;28;20020;-71
2022/04/30 10:46:40;;;;;;;;;;;13.90;99.90;;;;;;5068040;28;20293;-70
2022/04/30 10:49:07;;;;;;;;;;;14.10;99.90;;;;;;5067925;28;19936;-71
2022/04/30 10:51:39;;;;;;;;;;;14.30;99.90;;;;;;5051359;28;19924;-71
2022/04/30 10:54:08;;;;;;;;;;;14.50;99.90;;;;;;5051046;28;20303;-71
2022/04/30 10:56:35;;;;;;;;;;;14.70;99.90;;;;;;5068081;28;19928;-71
2022/04/30 10:59:02;;;;;;;;;;;14.80;99.90;;;;;;5067710;28;19925;-71
2022/04/30 11:01:29;;;;;;;;;;;14.70;99.90;;;;;;5068123;28;19974;-71
2022/04/30 11:03:55;;;;;;;;;;;14.90;99.90;;;;;;5067533;28;19947;-71
2022/04/30 11:06:23;;;;;;;;;;;15.10;99.90;;;;;;5067640;28;20358;-71
2022/04/30 11:09:01;;;;;;;;;;;15.00;99.90;;;;;;5067097;28;19924;-74
2022/04/30 11:11:28;;;;;;;;;;;14.90;99.90;;;;;;5060063;28;20355;-71
2022/04/30 11:13:56;;;;;;;;;;;14.80;99.90;;;;;;5050475;28;19979;-70
2022/04/30 11:16:28;;;;;;;;;;;14.80;99.90;;;;;;5067534;28;20312;-70
2022/04/30 11:19:03;;;;;;;;;;;14.70;99.90;;;;;;5067124;28;19939;-71
2022/04/30 11:21:34;;;;;;;;;;;15.00;99.90;;;;;;5067516;28;20366;-71
2022/04/30 11:24:02;;;;;;;;;;;15.30;99.90;;;;;;5067150;28;19947;-71
2022/04/30 11:26:29;;;;;;;;;;;15.80;99.90;;;;;;5050643;28;19971;-71
2022/04/30 11:28:56;;;;;;;;;;;16.00;99.90;;;;;;5066935;28;19943;-71
2022/04/30 11:31:23;;;;;;;;;;;15.70;99.90;;;;;;5067152;28;19948;-71
2022/04/30 11:33:50;;;;;;;;;;;15.80;99.90;;;;;;5066772;28;20477;-72
2022/04/30 11:36:17;;;;;;;;;;;16.20;99.90;;;;;;5050341;28;19925;-72
2022/04/30 11:38:55;;;;;;;;;;;16.90;99.90;;;;;;5067118;28;20006;-71
2022/04/30 11:41:23;;;;;;;;;;;17.00;99.90;;;;;;5067179;28;19960;-72
2022/04/30 11:44:00;;;;;;;;;;;17.20;99.90;;;;;;5066514;28;20388;-71
2022/04/30 11:46:27;;;;;;;;;;;17.00;99.90;;;;;;5067087;28;20483;-72
2022/04/30 11:48:54;;;;;;;;;;;17.10;99.90;;;;;;5066933;28;19925;-72
2022/04/30 11:51:21;;;;;;;;;;;18.00;99.90;;;;;;5067117;28;19925;-72
2022/04/30 11:53:48;;;;;;;;;;;18.30;99.90;;;;;;5066533;28;19924;-72
2022/04/30 11:56:15;;;;;;;;;;;17.50;99.90;;;;;;5066781;28;19925;-72
2022/04/30 11:58:44;;;;;;;;;;;18.40;99.90;;;;;;5066643;28;19925;-72
2022/04/30 12:01:23;;;;;;;;;;;22.60;99.90;;;;;;5066923;28;20340;-72
2022/04/30 12:03:54;;;;;;;;;;;25.60;99.90;;;;;;5066428;28;19978;-72
2022/04/30 12:06:21;;;;;;;;;;;26.60;99.90;;;;;;5050059;28;19925;-72
2022/04/30 12:08:47;;;;;;;;;;;29.30;99.90;;;;;;5066652;28;19932;-71
2022/04/30 12:11:14;;;;;;;;;;;30.80;99.90;;;;;;5066396;28;19925;-71
2022/04/30 12:13:41;;;;;;;;;;;26.50;99.90;;;;;;5066547;28;20377;-72
2022/04/30 12:16:10;;;;;;;;;;;25.10;99.90;;;;;;5066500;28;19974;-72
2022/04/30 12:26:54;;;;;;;;;;;26.10;99.90;;;;;;5049819;28;19975;-73
2022/04/30 12:29:21;;;;;;;;;;;28.30;99.90;;;;;;5066563;28;20020;-73
2022/04/30 12:31:51;;;;;;;;;;;29.60;99.90;;;;;;5066307;28;20358;-70
2022/04/30 12:34:18;;;;;;;;;;;31.20;99.90;;;;;;5049328;28;20396;-70
2022/04/30 12:36:50;;;;;;;;;;;33.10;99.90;;;;;;5066280;28;19948;-70
2022/04/30 12:39:17;;;;;;;;;;;34.50;99.90;;;;;;5066257;28;19924;-71
2022/04/30 12:41:44;;;;;;;;;;;34.80;98.90;;;;;;5066198;28;19947;-71
2022/04/30 12:44:11;;;;;;;;;;;34.90;98.30;;;;;;5066073;28;19929;-71
2022/04/30 12:46:42;;;;;;;;;;;35.90;99.50;;;;;;5066260;28;20331;-71
2022/04/30 12:49:11;;;;;;;;;;;36.10;97.90;;;;;;5066318;28;19933;-71
2022/04/30 12:51:38;;;;;;;;;;;34.80;97.00;;;;;;5066446;28;19992;-71
2022/04/30 12:54:05;;;;;;;;;;;34.30;96.40;;;;;;5066051;28;19925;-68
2022/04/30 12:56:32;;;;;;;;;;;33.70;95.90;;;;;;5067482;28;19925;-71
2022/04/30 12:58:59;;;;;;;;;;;34.50;97.10;;;;;;5069679;28;20362;-72
2022/04/30 13:01:26;;;;;;;;;;;34.80;95.90;;;;;;5053671;28;20351;-71
2022/04/30 13:03:53;;;;;;;;;;;36.70;97.80;;;;;;5053066;28;20372;-71
2022/04/30 13:06:21;;;;;;;;;;;35.30;95.50;;;;;;5069845;28;19924;-73
2022/04/30 13:14:16;;;;;;;;;;;36.00;94.50;;;;;;5052956;28;19963;-71
2022/04/30 13:16:43;;;;;;;;;;;34.90;94.50;;;;;;5069743;28;20022;-72
2022/04/30 13:19:10;;;;;;;;;;;35.40;93.80;;;;;;5052960;28;20346;-72
2022/04/30 13:21:39;;;;;;;;;;;35.40;95.80;;;;;;5069817;28;20019;-72
2022/04/30 13:24:06;;;;;;;;;;;34.10;93.40;;;;;;5052647;28;19925;-71
2022/04/30 13:26:33;;;;;;;;;;;31.30;93.50;;;;;;5053066;28;19979;-72
2022/04/30 13:29:00;;;;;;;;;;;32.10;94.10;;;;;;5069568;28;19924;-73
2022/04/30 13:31:27;;;;;;;;;;;33.80;93.90;;;;;;5069829;28;19932;-71
2022/04/30 13:33:53;;;;;;;;;;;36.50;94.30;;;;;;5069315;28;19978;-72
2022/04/30 13:36:21;;;;;;;;;;;37.40;94.10;;;;;;5069512;28;19925;-73
2022/04/30 13:38:49;;;;;;;;;;;36.00;93.70;;;;;;5052713;28;19928;-72
2022/04/30 13:41:16;;;;;;;;;;;36.00;94.40;;;;;;5069322;28;19979;-72
2022/04/30 13:43:43;;;;;;;;;;;35.50;94.40;;;;;;5052497;28;19957;-71
2022/04/30 13:46:09;;;;;;;;;;;35.60;94.50;;;;;;5069237;28;20461;-72
2022/04/30 13:48:37;;;;;;;;;;;34.60;94.00;;;;;;5069319;28;19959;-71
2022/04/30 13:51:04;;;;;;;;;;;34.60;94.00;;;;;;5068880;28;19924;-73
2022/04/30 13:53:31;;;;;;;;;;;33.00;94.50;;;;;;5051880;28;20026;-74
2022/04/30 13:56:00;;;;;;;;;;;34.10;94.70;;;;;;5069232;28;19924;-72
2022/04/30 13:58:26;;;;;;;;;;;34.70;93.50;;;;;;5069040;28;19936;-73
2022/04/30 14:00:53;;;;;;;;;;;34.70;92.30;;;;;;5068865;28;19933;-73
2022/04/30 14:03:20;;;;;;;;;;;31.00;91.60;;;;;;5068788;28;19958;-71
2022/04/30 14:05:47;;;;;;;;;;;30.60;91.30;;;;;;5051871;28;19925;-73
2022/04/30 14:08:15;;;;;;;;;;;28.50;90.80;;;;;;5069019;28;19930;-73
2022/04/30 14:10:42;;;;;;;;;;;29.00;92.00;;;;;;5064001;28;19940;-73
2022/04/30 14:15:51;;;;;;;;;;;25.70;92.10;;;;;;4999273;28;19925;-73
2022/04/30 14:18:19;;;;;;;;;;;23.60;92.30;;;;;;5032300;28;19990;-72
2022/04/30 14:20:46;;;;;;;;;;;22.40;91.80;;;;;;5034523;28;20027;-71
2022/04/30 14:23:13;;;;;;;;;;;;;;;;;;5056195;28;19928;-73
2022/04/30 14:25:40;;;;;;;;;;;20.60;93.40;;;;;;5051745;28;19925;-72
2022/04/30 14:28:07;;;;;;;;;;;19.90;94.70;;;;;;5068891;28;19933;-73
2022/04/30 14:30:38;;;;;;;;;;;19.50;95.40;;;;;;5051897;28;20384;-71
2022/04/30 14:33:05;;;;;;;;;;;19.30;94.60;;;;;;5068500;28;19936;-71
2022/04/30 14:35:32;;;;;;;;;;;18.90;95.10;;;;;;5068414;28;19924;-72
2022/04/30 14:37:59;;;;;;;;;;;18.90;95.20;;;;;;5068315;28;19929;-73
2022/04/30 14:40:28;;;;;;;;;;;18.80;96.20;;;;;;5068092;28;19929;-73
2022/04/30 14:42:55;;;;;;;;;;;19.60;96.10;;;;;;5068078;28;20304;-73
2022/04/30 14:45:23;;;;;;;;;;;23.90;95.80;;;;;;5067510;28;20312;-73
2022/04/30 14:47:51;;;;;;;;;;;26.80;95.70;;;;;;5067979;28;19925;-73
2022/04/30 14:50:19;;;;;;;;;;;28.90;95.10;;;;;;5067470;28;19982;-71
2022/04/30 14:52:47;;;;;;;;;;;30.10;95.00;;;;;;5067923;28;19932;-71
2022/04/30 14:55:14;;;;;;;;;;;27.90;92.60;;;;;;5050986;28;20023;-74
2022/04/30 14:57:41;;;;;;;;;;;25.50;93.70;;;;;;5067672;28;19924;-73
2022/04/30 15:00:09;;;;;;;;;;;23.60;94.10;;;;;;5067292;28;19941;-73
2022/04/30 15:02:36;;;;;;;;;;;22.00;94.10;;;;;;5067799;28;19983;-72
2022/04/30 15:05:04;;;;;;;;;;;20.80;94.10;;;;;;5067636;28;19925;-72
2022/04/30 15:07:31;;;;;;;;;;;20.10;94.70;;;;;;5067819;28;19925;-72
2022/04/30 15:09:58;;;;;;;;;;;19.40;95.40;;;;;;5050603;28;20301;-73
2022/04/30 15:12:24;;;;;;;;;;;18.90;96.70;;;;;;5048731;28;19933;-74
2022/04/30 15:14:51;;;;;;;;;;;18.70;96.00;;;;;;5031011;28;19932;-72
2022/04/30 15:17:19;;;;;;;;;;;18.40;96.60;;;;;;5031167;28;19940;-74
2022/04/30 15:19:46;;;;;;;;;;;18.20;98.50;;;;;;5030266;28;19925;-74